createdAt,value
2022-10-08T00:01:30.524Z,76.14
2022-10-08T00:03:58.660Z,76.43
2022-10-08T00:06:32.033Z,76.35
2022-10-08T00:09:03.985Z,76.75
2022-10-08T00:11:35.608Z,76.38
2022-10-08T00:14:04.906Z,76.00
2022-10-08T00:16:39.822Z,76.05
2022-10-08T00:19:12.655Z,76.10
2022-10-08T00:21:43.356Z,76.34
2022-10-08T00:24:14.519Z,76.06
2022-10-08T00:26:44.252Z,76.16
2022-10-08T00:29:15.104Z,75.85
2022-10-08T00:31:46.087Z,75.48
2022-10-08T00:34:20.241Z,75.75
2022-10-08T00:36:51.914Z,76.06
2022-10-08T00:39:22.545Z,75.75
2022-10-08T00:41:54.017Z,75.91
2022-10-08T00:44:46.939Z,75.99
2022-10-08T00:47:29.857Z,76.05
2022-10-08T00:50:02.016Z,76.41
2022-10-08T00:52:35.175Z,76.51
2022-10-08T00:55:06.667Z,76.27
2022-10-08T00:57:36.885Z,76.15
2022-10-08T01:00:13.349Z,75.92
2022-10-08T01:02:41.421Z,75.55
2022-10-08T01:05:11.288Z,75.43
2022-10-08T01:07:54.264Z,75.51
2022-10-08T01:10:41.067Z,76.04
2022-10-08T01:13:19.892Z,76.15
2022-10-08T01:16:21.985Z,76.22
2022-10-08T01:18:57.924Z,76.49
2022-10-08T01:21:35.206Z,76.68
2022-10-08T01:24:22.424Z,77.21
2022-10-08T01:26:54.191Z,77.38
2022-10-08T01:29:29.801Z,77.35
2022-10-08T01:32:06.118Z,77.20
2022-10-08T01:34:37.626Z,77.29
2022-10-08T01:37:11.270Z,77.31
2022-10-08T01:39:40.977Z,77.12
2022-10-08T01:42:11.092Z,76.69
2022-10-08T01:44:47.862Z,77.41
2022-10-08T01:47:28.020Z,77.57
2022-10-08T01:50:03.044Z,77.86
2022-10-08T01:52:37.165Z,77.31
2022-10-08T01:55:12.424Z,77.37
2022-10-08T01:57:40.852Z,77.36
2022-10-08T02:00:13.166Z,77.70
2022-10-08T02:02:43.226Z,78.10
2022-10-08T02:05:12.479Z,78.31
2022-10-08T02:07:42.801Z,78.47
2022-10-08T02:10:13.437Z,78.90
2022-10-08T02:12:42.550Z,78.67
2022-10-08T02:15:34.864Z,79.08
2022-10-08T02:18:09.769Z,79.43
2022-10-08T02:20:42.247Z,79.25
2022-10-08T02:23:25.398Z,78.90
2022-10-08T02:26:01.664Z,79.04
2022-10-08T02:28:48.477Z,78.69
2022-10-08T02:31:36.005Z,78.89
2022-10-08T02:34:12.780Z,78.69
2022-10-08T02:37:08.094Z,78.65
2022-10-08T02:39:39.755Z,79.06
2022-10-08T02:42:12.935Z,78.93
2022-10-08T02:44:49.700Z,78.85
2022-10-08T02:47:23.301Z,79.05
2022-10-08T02:49:57.020Z,79.19
2022-10-08T02:52:30.020Z,79.06
2022-10-08T02:55:01.254Z,78.96
2022-10-08T02:57:34.440Z,78.77
2022-10-08T03:00:03.540Z,78.46
2022-10-08T03:02:47.578Z,77.97
2022-10-08T03:05:19.254Z,77.88
2022-10-08T03:07:50.603Z,78.03
2022-10-08T03:10:20.091Z,78.04
2022-10-08T03:12:48.485Z,78.58
2022-10-08T03:15:17.264Z,78.41
2022-10-08T03:17:47.891Z,78.13
2022-10-08T03:20:16.166Z,78.38
2022-10-08T03:22:44.261Z,78.12
2022-10-08T03:25:12.418Z,77.96
2022-10-08T03:27:40.281Z,77.82
2022-10-08T03:30:09.173Z,78.09
2022-10-08T03:32:37.146Z,78.26
2022-10-08T03:35:05.422Z,78.22
2022-10-08T03:37:33.390Z,78.36
2022-10-08T03:40:01.253Z,78.77
2022-10-08T03:42:29.200Z,79.25
2022-10-08T03:44:57.194Z,79.16
2022-10-08T03:47:25.171Z,79.44
2022-10-08T03:49:53.029Z,79.36
2022-10-08T03:52:21.004Z,78.89
2022-10-08T03:54:49.179Z,78.88
2022-10-08T03:57:17.141Z,78.92
2022-10-08T03:59:45.113Z,78.93
2022-10-08T04:02:13.275Z,78.55
2022-10-08T04:04:41.465Z,78.73
2022-10-08T04:07:09.325Z,79.10
2022-10-08T04:09:37.301Z,79.51
2022-10-08T04:12:05.270Z,79.16
2022-10-08T04:14:33.152Z,79.44
2022-10-08T04:17:01.070Z,79.82
2022-10-08T04:19:29.076Z,80.26
2022-10-08T04:21:57.039Z,80.25
2022-10-08T04:24:24.909Z,80.03
2022-10-08T04:26:52.882Z,79.69
2022-10-08T04:29:20.847Z,79.79
2022-10-08T04:31:48.736Z,79.50
2022-10-08T04:34:16.785Z,79.23
2022-10-08T04:36:44.606Z,78.86
2022-10-08T04:39:12.498Z,78.78
2022-10-08T04:41:40.598Z,78.85
2022-10-08T04:44:08.560Z,79.14
2022-10-08T04:46:36.733Z,78.84
2022-10-08T04:49:04.812Z,79.66
2022-10-08T04:51:32.754Z,79.28
2022-10-08T04:54:01.973Z,78.74
2022-10-08T04:56:32.094Z,78.68
2022-10-08T04:59:00.082Z,78.64
2022-10-08T05:01:29.414Z,78.51
2022-10-08T05:03:59.126Z,78.14
2022-10-08T05:06:29.610Z,78.23
2022-10-08T05:08:59.930Z,78.19
2022-10-08T05:11:28.518Z,77.98
2022-10-08T05:13:58.033Z,77.67
2022-10-08T05:16:26.719Z,78.04
2022-10-08T05:18:55.707Z,78.19
2022-10-08T05:21:29.164Z,77.68
2022-10-08T05:24:04.109Z,77.60
2022-10-08T05:26:58.594Z,77.50
2022-10-08T05:29:28.639Z,77.72
2022-10-08T05:31:56.729Z,77.97
2022-10-08T05:34:24.909Z,77.92
2022-10-08T05:36:53.099Z,78.03
2022-10-08T05:39:21.028Z,78.18
2022-10-08T05:41:48.997Z,77.78
2022-10-08T05:44:17.282Z,78.40
2022-10-08T05:46:45.341Z,78.74
2022-10-08T05:49:21.922Z,79.03
2022-10-08T05:51:50.506Z,78.71
2022-10-08T05:54:19.191Z,78.76
2022-10-08T05:56:47.160Z,78.90
2022-10-08T05:59:23.796Z,78.48
2022-10-08T06:01:52.311Z,78.62
2022-10-08T06:04:20.421Z,78.93
2022-10-08T06:06:48.556Z,79.34
2022-10-08T06:09:18.850Z,79.19
2022-10-08T06:11:48.812Z,78.49
2022-10-08T06:14:19.235Z,78.70
2022-10-08T06:16:47.302Z,78.30
2022-10-08T06:19:15.880Z,78.41
2022-10-08T06:21:43.976Z,78.49
2022-10-08T06:24:12.977Z,78.89
2022-10-08T06:26:43.067Z,79.01
2022-10-08T06:29:16.347Z,78.37
2022-10-08T06:31:45.322Z,78.08
2022-10-08T06:34:13.738Z,77.82
2022-10-08T06:36:41.708Z,77.66
2022-10-08T06:39:15.512Z,77.56
2022-10-08T06:41:43.469Z,77.49
2022-10-08T06:44:13.686Z,77.36
2022-10-08T06:46:42.980Z,77.46
2022-10-08T06:49:12.616Z,77.20
2022-10-08T06:51:41.192Z,76.73
2022-10-08T06:54:09.167Z,76.64
2022-10-08T06:56:38.639Z,76.07
2022-10-08T06:59:08.090Z,75.87
2022-10-08T07:01:36.684Z,75.79
2022-10-08T07:04:07.105Z,75.49
2022-10-08T07:06:36.076Z,75.03
2022-10-08T07:09:05.474Z,74.61
2022-10-08T07:11:34.993Z,74.16
2022-10-08T07:14:03.061Z,73.81
2022-10-08T07:16:31.618Z,73.74
2022-10-08T07:18:59.921Z,73.50
2022-10-08T07:21:29.418Z,73.41
2022-10-08T07:23:59.864Z,73.11
2022-10-08T07:26:32.749Z,72.63
2022-10-08T07:29:12.687Z,72.48
2022-10-08T07:31:41.045Z,72.41
2022-10-08T07:34:12.421Z,72.33
2022-10-08T07:36:41.100Z,71.80
2022-10-08T07:39:13.163Z,71.41
2022-10-08T07:41:41.745Z,71.61
2022-10-08T07:44:11.254Z,71.43
2022-10-08T07:46:44.517Z,70.89
2022-10-08T07:49:12.632Z,70.52
2022-10-08T07:51:41.927Z,70.25
2022-10-08T07:54:14.492Z,70.21
2022-10-08T07:56:42.470Z,69.70
2022-10-08T07:59:15.143Z,68.90
2022-10-08T08:01:43.906Z,69.03
2022-10-08T08:04:12.311Z,68.50
2022-10-08T08:06:47.883Z,67.80
2022-10-08T08:09:16.819Z,67.14
2022-10-08T08:11:46.329Z,67.06
2022-10-08T08:14:14.641Z,66.63
2022-10-08T08:16:42.688Z,66.39
2022-10-08T08:19:10.675Z,65.89
2022-10-08T08:21:39.600Z,65.66
2022-10-08T08:24:11.222Z,64.89
2022-10-08T08:26:40.986Z,65.16
2022-10-08T08:29:15.299Z,64.71
2022-10-08T08:31:46.370Z,64.69
2022-10-08T08:34:20.280Z,64.79
2022-10-08T08:36:49.669Z,65.37
2022-10-08T08:39:23.208Z,64.24
2022-10-08T08:42:12.275Z,63.42
2022-10-08T08:44:43.004Z,63.52
2022-10-08T08:47:29.508Z,63.13
2022-10-08T08:50:01.498Z,62.77
2022-10-08T08:52:34.180Z,62.73
2022-10-08T08:55:02.499Z,62.90
2022-10-08T08:57:33.161Z,61.14
2022-10-08T09:00:06.762Z,60.27
2022-10-08T09:02:41.670Z,59.61
2022-10-08T09:05:14.814Z,60.47
2022-10-08T09:07:51.869Z,60.96
2022-10-08T09:10:29.257Z,58.86
2022-10-08T09:12:58.165Z,57.68
2022-10-08T09:15:38.285Z,56.91
2022-10-08T09:18:06.396Z,58.52
2022-10-08T09:20:39.417Z,57.98
2022-10-08T09:23:23.306Z,56.44
2022-10-08T09:26:03.337Z,56.93
2022-10-08T09:28:47.505Z,56.68
2022-10-08T09:31:23.389Z,55.43
2022-10-08T09:34:01.884Z,54.78
2022-10-08T09:36:29.719Z,54.24
2022-10-08T09:38:59.481Z,54.57
2022-10-08T09:41:29.651Z,55.36
2022-10-08T09:44:20.994Z,55.49
2022-10-08T09:47:03.919Z,55.43
2022-10-08T09:49:35.311Z,55.30
2022-10-08T09:52:27.100Z,53.86
2022-10-08T09:55:08.274Z,52.79
2022-10-08T09:57:48.533Z,52.14
2022-10-08T10:00:30.495Z,51.45
2022-10-08T10:03:00.312Z,51.55
2022-10-08T10:05:35.180Z,50.72
2022-10-08T10:08:04.689Z,50.44
2022-10-08T10:10:40.694Z,51.16
2022-10-08T10:13:14.873Z,51.76
2022-10-08T10:16:05.559Z,50.56
2022-10-08T10:18:44.171Z,48.42
2022-10-08T10:21:19.821Z,45.67
2022-10-08T10:24:04.684Z,44.58
2022-10-08T10:26:39.521Z,44.60
2022-10-08T10:29:18.895Z,45.04
2022-10-08T10:31:58.595Z,45.13
2022-10-08T10:34:35.065Z,42.98
2022-10-08T10:37:17.065Z,42.62
2022-10-08T10:39:53.333Z,41.64
2022-10-08T10:42:33.192Z,41.46
2022-10-08T10:45:23.776Z,40.34
2022-10-08T10:47:53.490Z,39.04
2022-10-08T10:50:31.803Z,38.72
2022-10-08T10:53:07.960Z,38.32
2022-10-08T10:56:03.367Z,37.56
2022-10-08T10:58:46.603Z,36.58
2022-10-08T11:01:44.359Z,36.69
2022-10-08T11:05:02.747Z,35.75
2022-10-08T11:07:49.534Z,34.71
2022-10-08T11:10:46.169Z,34.88
2022-10-08T11:13:41.998Z,34.55
2022-10-08T11:16:25.221Z,33.91
2022-10-08T11:18:56.366Z,32.87
2022-10-08T11:21:32.900Z,31.98
2022-10-08T11:24:35.119Z,31.76
2022-10-08T11:27:20.874Z,31.78
2022-10-08T11:30:08.532Z,31.81
2022-10-08T11:32:36.597Z,31.12
2022-10-08T11:35:19.516Z,30.42
2022-10-08T11:38:04.384Z,30.32
2022-10-08T11:40:47.614Z,29.69
2022-10-08T11:43:31.051Z,29.05
2022-10-08T11:46:22.986Z,30.00
2022-10-08T11:48:51.712Z,28.97
2022-10-08T11:51:19.631Z,29.00
2022-10-08T11:54:29.888Z,28.92
2022-10-08T11:57:49.345Z,28.13
2022-10-08T12:00:23.072Z,28.82
2022-10-08T12:02:53.763Z,27.88
2022-10-08T12:05:21.891Z,26.25
2022-10-08T12:07:54.968Z,25.80
2022-10-08T12:10:40.181Z,25.20
2022-10-08T12:13:17.644Z,25.12
2022-10-08T12:15:45.956Z,24.73
2022-10-08T12:18:13.883Z,24.14
2022-10-08T12:20:42.664Z,24.74
2022-10-08T12:23:34.593Z,25.49
2022-10-08T12:26:05.132Z,24.69
2022-10-08T12:28:35.620Z,24.85
2022-10-08T12:31:27.029Z,25.57
2022-10-08T12:33:58.358Z,25.20
2022-10-08T12:36:36.637Z,25.40
2022-10-08T12:39:24.980Z,25.65
2022-10-08T12:42:02.082Z,24.06
2022-10-08T12:44:54.307Z,23.58
2022-10-08T12:47:42.151Z,23.65
2022-10-08T12:50:33.042Z,24.00
2022-10-08T12:53:03.477Z,24.02
2022-10-08T12:55:38.321Z,22.73
2022-10-08T12:58:06.576Z,22.03
2022-10-08T13:00:36.175Z,22.75
2022-10-08T13:03:12.655Z,23.16
2022-10-08T13:05:43.517Z,22.56
2022-10-08T13:08:38.932Z,22.62
2022-10-08T13:11:10.761Z,22.21
2022-10-08T13:13:38.731Z,22.47
2022-10-08T13:16:13.813Z,21.37
2022-10-08T13:18:44.779Z,21.69
2022-10-08T13:21:53.543Z,21.27
2022-10-08T13:24:21.415Z,21.46
2022-10-08T13:26:52.276Z,21.66
2022-10-08T13:29:31.131Z,22.37
2022-10-08T13:32:11.425Z,21.60
2022-10-08T13:34:39.394Z,20.52
2022-10-08T13:37:30.305Z,21.58
2022-10-08T13:40:02.675Z,22.03
2022-10-08T13:42:36.354Z,21.89
2022-10-08T13:45:13.258Z,21.93
2022-10-08T13:47:41.119Z,22.46
2022-10-08T13:50:09.709Z,21.89
2022-10-08T13:52:45.365Z,21.45
2022-10-08T13:55:36.987Z,22.17
2022-10-08T13:58:07.007Z,21.98
2022-10-08T14:00:39.993Z,21.85
2022-10-08T14:03:08.900Z,22.60
2022-10-08T14:05:40.628Z,22.99
2022-10-08T14:08:23.662Z,23.28
2022-10-08T14:10:57.766Z,23.75
2022-10-08T14:13:26.864Z,24.15
2022-10-08T14:15:54.867Z,24.85
2022-10-08T14:18:23.424Z,25.80
2022-10-08T14:20:52.104Z,25.64
2022-10-08T14:23:21.195Z,26.39
2022-10-08T14:25:51.325Z,27.12
2022-10-08T14:28:19.338Z,28.11
2022-10-08T14:30:47.363Z,28.89
2022-10-08T14:33:15.335Z,29.35
2022-10-08T14:35:43.302Z,29.99
2022-10-08T14:38:11.272Z,30.53
2022-10-08T14:40:39.206Z,30.41
2022-10-08T14:43:07.052Z,31.77
2022-10-08T14:45:35.047Z,33.44
2022-10-08T14:48:03.397Z,34.08
2022-10-08T14:50:31.332Z,32.03
2022-10-08T14:52:59.186Z,33.16
2022-10-08T14:55:27.258Z,34.65
2022-10-08T14:57:55.038Z,34.82
2022-10-08T15:00:22.908Z,37.10
2022-10-08T15:02:51.014Z,37.90
2022-10-08T15:05:19.244Z,37.32
2022-10-08T15:07:47.377Z,37.26
2022-10-08T15:10:15.691Z,36.50
2022-10-08T15:12:43.660Z,37.08
2022-10-08T15:15:11.740Z,38.25
2022-10-08T15:17:39.606Z,38.80
2022-10-08T15:20:07.976Z,38.61
2022-10-08T15:22:35.865Z,40.24
2022-10-08T15:25:04.741Z,40.59
2022-10-08T15:27:32.623Z,41.06
2022-10-08T15:30:00.677Z,43.02
2022-10-08T15:32:30.655Z,44.62
2022-10-08T15:34:58.973Z,45.34
2022-10-08T15:37:26.937Z,45.11
2022-10-08T15:39:55.018Z,45.48
2022-10-08T15:42:22.981Z,46.98
2022-10-08T15:44:51.056Z,47.40
2022-10-08T15:47:18.916Z,46.95
2022-10-08T15:49:47.087Z,47.55
2022-10-08T15:52:24.072Z,49.01
2022-10-08T15:54:52.065Z,49.74
2022-10-08T15:57:20.214Z,49.52
2022-10-08T15:59:48.200Z,49.78
2022-10-08T16:02:17.861Z,50.44
2022-10-08T16:04:47.469Z,51.21
2022-10-08T16:07:17.319Z,51.72
2022-10-08T16:09:45.375Z,52.56
2022-10-08T16:12:13.664Z,52.98
2022-10-08T16:14:41.632Z,53.20
2022-10-08T16:17:09.656Z,53.38
2022-10-08T16:19:37.677Z,53.69
2022-10-08T16:22:05.852Z,54.03
2022-10-08T16:24:33.812Z,54.53
2022-10-08T16:27:01.791Z,55.38
2022-10-08T16:29:30.488Z,55.58
2022-10-08T16:31:58.795Z,55.66
2022-10-08T16:34:28.762Z,55.87
2022-10-08T16:36:59.501Z,56.14
2022-10-08T16:39:27.988Z,55.61
2022-10-08T16:41:56.161Z,55.94
2022-10-08T16:44:24.131Z,55.40
2022-10-08T16:46:53.228Z,56.74
2022-10-08T16:49:27.293Z,56.92
2022-10-08T16:52:05.241Z,57.55
2022-10-08T16:54:33.308Z,57.71
2022-10-08T16:57:02.100Z,57.73
2022-10-08T16:59:30.723Z,57.58
2022-10-08T17:02:00.595Z,57.80
2022-10-08T17:04:30.309Z,58.10
2022-10-08T17:06:58.212Z,58.39
2022-10-08T17:09:26.355Z,59.19
2022-10-08T17:11:54.624Z,59.56
2022-10-08T17:14:22.597Z,59.55
2022-10-08T17:16:50.749Z,59.41
2022-10-08T17:19:19.326Z,59.73
2022-10-08T17:21:47.323Z,59.83
2022-10-08T17:24:15.493Z,59.88
2022-10-08T17:26:43.503Z,60.41
2022-10-08T17:29:13.001Z,60.42
2022-10-08T17:31:41.263Z,61.01
2022-10-08T17:34:10.459Z,61.12
2022-10-08T17:36:41.596Z,61.85
2022-10-08T17:39:13.178Z,62.09
2022-10-08T17:41:42.772Z,62.54
2022-10-08T17:44:11.861Z,62.49
2022-10-08T17:46:46.244Z,62.61
2022-10-08T17:49:16.595Z,62.78
2022-10-08T17:51:45.794Z,63.49
2022-10-08T17:54:16.620Z,63.67
2022-10-08T17:56:45.120Z,63.29
2022-10-08T17:59:22.858Z,63.79
2022-10-08T18:01:51.787Z,63.86
2022-10-08T18:04:20.382Z,64.14
2022-10-08T18:06:48.882Z,64.08
2022-10-08T18:09:20.117Z,64.45
2022-10-08T18:11:52.017Z,64.99
2022-10-08T18:14:21.788Z,65.51
2022-10-08T18:16:50.265Z,65.44
2022-10-08T18:19:19.002Z,65.49
2022-10-08T18:21:47.123Z,65.34
2022-10-08T18:24:17.164Z,63.20
2022-10-08T18:26:45.420Z,63.21
2022-10-08T18:29:14.825Z,64.31
2022-10-08T18:31:44.188Z,66.50
2022-10-08T18:34:15.582Z,66.35
2022-10-08T18:36:45.187Z,66.90
2022-10-08T18:39:18.789Z,67.01
2022-10-08T18:41:51.682Z,67.15
2022-10-08T18:44:23.381Z,67.27
2022-10-08T18:46:52.219Z,67.03
2022-10-08T18:49:30.311Z,66.85
2022-10-08T18:51:59.700Z,67.42
2022-10-08T18:54:27.803Z,68.09
2022-10-08T18:56:57.162Z,67.83
2022-10-08T18:59:25.367Z,67.56
2022-10-08T19:01:58.344Z,68.07
2022-10-08T19:04:27.666Z,68.45
2022-10-08T19:06:55.737Z,68.60
2022-10-08T19:09:23.686Z,68.54
2022-10-08T19:11:53.709Z,68.59
2022-10-08T19:14:23.231Z,68.83
2022-10-08T19:16:51.195Z,68.81
2022-10-08T19:19:24.530Z,68.83
2022-10-08T19:21:54.418Z,69.06
2022-10-08T19:24:24.755Z,68.83
2022-10-08T19:26:54.546Z,69.22
2022-10-08T19:29:26.878Z,69.27
2022-10-08T19:31:55.294Z,69.41
2022-10-08T19:34:25.953Z,69.78
2022-10-08T19:36:54.410Z,70.00
2022-10-08T19:39:25.617Z,68.97
2022-10-08T19:41:54.098Z,69.19
2022-10-08T19:44:22.106Z,69.18
2022-10-08T19:46:50.480Z,69.70
2022-10-08T19:49:19.028Z,69.99
2022-10-08T19:51:47.036Z,70.64
2022-10-08T19:54:16.232Z,70.44
2022-10-08T19:56:44.313Z,70.48
2022-10-08T19:59:13.517Z,70.30
2022-10-08T20:01:42.836Z,70.34
2022-10-08T20:04:12.005Z,70.24
2022-10-08T20:06:42.312Z,70.34
2022-10-08T20:09:12.405Z,70.62
2022-10-08T20:11:42.368Z,70.45
2022-10-08T20:14:11.679Z,70.36
2022-10-08T20:16:41.799Z,70.39
2022-10-08T20:19:22.250Z,70.14
2022-10-08T20:21:51.554Z,69.51
2022-10-08T20:24:19.935Z,69.40
2022-10-08T20:26:49.266Z,69.81
2022-10-08T20:29:21.093Z,70.17
2022-10-08T20:31:54.162Z,70.08
2022-10-08T20:34:27.208Z,70.19
2022-10-08T20:36:55.450Z,70.28
2022-10-08T20:39:23.800Z,70.48
2022-10-08T20:41:52.100Z,70.70
2022-10-08T20:44:20.677Z,71.02
2022-10-08T20:46:49.910Z,71.13
2022-10-08T20:49:18.402Z,71.11
2022-10-08T20:51:46.477Z,71.19
2022-10-08T20:54:16.335Z,70.84
2022-10-08T20:56:44.927Z,71.33
2022-10-08T20:59:18.661Z,71.12
2022-10-08T21:01:47.458Z,70.94
2022-10-08T21:04:15.596Z,71.26
2022-10-08T21:06:46.642Z,71.02
2022-10-08T21:09:16.142Z,71.35
2022-10-08T21:11:46.107Z,70.94
2022-10-08T21:14:19.631Z,71.20
2022-10-08T21:16:47.635Z,71.30
2022-10-08T21:19:22.112Z,71.69
2022-10-08T21:21:50.739Z,71.54
2022-10-08T21:24:18.908Z,71.93
2022-10-08T21:26:46.986Z,72.00
2022-10-08T21:29:15.565Z,72.29
2022-10-08T21:31:44.016Z,72.13
2022-10-08T21:34:13.433Z,72.26
2022-10-08T21:36:42.343Z,72.80
2022-10-08T21:39:15.855Z,72.47
2022-10-08T21:41:44.728Z,72.34
2022-10-08T21:44:13.620Z,72.77
2022-10-08T21:46:42.448Z,73.42
2022-10-08T21:49:14.350Z,73.33
2022-10-08T21:51:43.191Z,73.55
2022-10-08T21:54:12.170Z,73.29
2022-10-08T21:56:41.475Z,73.19
2022-10-08T21:59:12.579Z,73.23
2022-10-08T22:01:44.212Z,73.35
2022-10-08T22:04:20.638Z,72.97
2022-10-08T22:06:51.146Z,73.11
2022-10-08T22:09:25.232Z,72.78
2022-10-08T22:11:54.570Z,72.44
2022-10-08T22:14:22.944Z,72.43
2022-10-08T22:16:51.633Z,72.24
2022-10-08T22:19:20.316Z,72.23
2022-10-08T22:21:48.277Z,71.85
2022-10-08T22:24:16.568Z,71.85
2022-10-08T22:26:47.294Z,72.16
2022-10-08T22:29:16.187Z,72.53
2022-10-08T22:31:44.526Z,72.82
2022-10-08T22:34:13.162Z,72.16
2022-10-08T22:36:44.577Z,72.13
2022-10-08T22:39:12.981Z,72.02
2022-10-08T22:41:41.052Z,72.15
2022-10-08T22:44:09.021Z,72.23
2022-10-08T22:46:39.360Z,71.94
2022-10-08T22:49:10.460Z,72.27
2022-10-08T22:51:39.174Z,72.20
2022-10-08T22:54:07.660Z,72.12
2022-10-08T22:56:35.627Z,72.05
2022-10-08T22:59:04.214Z,72.20
2022-10-08T23:01:32.279Z,72.64
2022-10-08T23:04:00.118Z,72.75
2022-10-08T23:06:33.755Z,72.58
2022-10-08T23:09:07.405Z,72.87
2022-10-08T23:11:35.626Z,73.17
2022-10-08T23:14:03.801Z,73.08
2022-10-08T23:16:34.124Z,73.87
2022-10-08T23:19:06.033Z,74.47
2022-10-08T23:21:35.613Z,74.17
2022-10-08T23:24:05.209Z,74.00
2022-10-08T23:26:33.689Z,73.92
2022-10-08T23:29:03.191Z,73.74
2022-10-08T23:31:34.311Z,73.65
2022-10-08T23:34:03.943Z,73.84
2022-10-08T23:36:34.681Z,73.65
2022-10-08T23:39:02.950Z,73.44
2022-10-08T23:41:31.229Z,73.73
2022-10-08T23:43:59.407Z,73.65
2022-10-08T23:46:29.626Z,73.44
2022-10-08T23:48:58.625Z,73.43
2022-10-08T23:51:28.534Z,73.24
2022-10-08T23:53:56.603Z,73.91
2022-10-08T23:56:24.883Z,74.06
2022-10-08T23:58:52.839Z,74.62
